This is the latest recevied weather packets stored in our database for station/object Aldingen. If no packets are shown the sender has not sent any weather packets the latest 10 day(s).
| Time | Temp. | Humidity | Pressure | Rain* | Wind** | Luminosity | Snow |
|---|---|---|---|---|---|---|---|
| 1777330929 | 8.33° C | 67% | 1016.8 hPa | 0 mm | - | - | - |
| 1777329129 | 8.33° C | 66% | 1017 hPa | 0 mm | - | - | - |
| 1777327329 | 8.33° C | 67% | 1017 hPa | 0 mm | - | - | - |
| 1777325530 | 8.89° C | 63% | 1017 hPa | 0 mm | - | - | - |
| 1777323730 | 10° C | 60% | 1017.3 hPa | 0 mm | - | - | - |
| 1777321930 | 10.56° C | 58% | 1017.4 hPa | 0 mm | - | - | - |
| 1777320129 | 11.67° C | 56% | 1017.4 hPa | 0 mm | - | - | - |
| 1777318340 | 12.78° C | 52% | 1017.5 hPa | 0 mm | - | - | - |
| 1777316531 | 13.89° C | 45% | 1017.2 hPa | 0 mm | - | - | - |
| 1777314729 | 15.56° C | 42% | 1017 hPa | 0 mm | - | - | - |
| 1777312929 | 16.67° C | 40% | 1017 hPa | 0 mm | - | - | - |
| 1777311131 | 17.22° C | 40% | 1016.9 hPa | 0 mm | - | - | - |
| 1777309331 | 17.78° C | 41% | 1017 hPa | 0 mm | - | - | - |
| 1777307530 | 18.89° C | 38% | 1017.2 hPa | 0 mm | - | - | - |
| 1777305730 | 18.89° C | 37% | 1017.3 hPa | 0 mm | - | - | - |
| 1777303931 | 19.44° C | 38% | 1017.4 hPa | 0 mm | - | - | - |
| 1777302132 | 20° C | 37% | 1017.5 hPa | 0 mm | - | - | - |
| 1777300330 | 20° C | 40% | 1017.6 hPa | 0 mm | - | - | - |
| 1777298531 | 20° C | 36% | 1017.8 hPa | 0 mm | - | - | - |
| 1777296731 | 20.56° C | 36% | 1018.2 hPa | 0 mm | - | - | - |
| 1777294933 | 20° C | 36% | 1018.5 hPa | 0 mm | - | - | - |
| 1777293131 | 19.44° C | 40% | 1018.7 hPa | 0 mm | - | - | - |
| 1777291330 | 20° C | 41% | 1018.9 hPa | 0 mm | - | - | - |
| 1777289531 | 19.44° C | 42% | 1019.2 hPa | 0 mm | - | - | - |
| 1777287731 | 18.33° C | 41% | 1019.4 hPa | 0 mm | - | - | - |
* Rain since midnight (hover to see other rain measurements)
** Current wind speed in m/s (hover to see current wind gust speed)